Time;durP1;ratioP1;P1;durP2;ratioP2;P2;SDS_P1;SDS_P2;PMS_P1;PMS_P2;Temp;Humidity;BMP_temperature;BMP_pressure;BME280_temperature;BME280_humidity;BME280_pressure;Samples;Min_cycle;Max_cycle;Signal;HPM_P1;HPM_P2
2022/08/04 00:01:32;;;;;;;;;;;;;;;22.95;60.45;99822.00;4439646;32;20065;-81
2022/08/04 00:03:57;;;;;;;;;;;;;;;22.92;60.44;99817.75;4440047;32;20009;-80
2022/08/04 00:06:27;;;;;;;;;;;;;;;22.94;60.44;99814.97;4454051;32;19984;-80
2022/08/04 00:08:55;;;;;;;;;;;;;;;22.87;60.45;99824.41;4440021;32;20234;-80
2022/08/04 00:11:21;;;;;;;;;;;;;;;22.92;60.44;99830.19;4427022;32;19989;-82
2022/08/04 00:13:48;;;;;;;;;;;;;;;22.88;60.45;99826.94;4454201;32;19999;-81
2022/08/04 00:16:14;;;;;;;;;;;;;;;22.93;60.44;99818.59;4439775;32;20281;-81
2022/08/04 00:18:40;;;;;;;;;;;;;;;22.95;60.45;99814.88;4439633;32;20026;-80
2022/08/04 00:21:05;;;;;;;;;;;;;;;22.81;60.44;99820.47;4439932;32;19997;-81
2022/08/04 00:23:32;;;;;;;;;;;;;;;22.77;60.43;99816.34;4454107;32;20395;-81
2022/08/04 00:25:57;;;;;;;;;;;;;;;22.66;60.43;99821.66;4439972;32;19974;-81
2022/08/04 00:28:23;;;;;;;;;;;;;;;22.60;60.43;99822.16;4439089;32;29923;-81
2022/08/04 00:30:48;;;;;;;;;;;;;;;22.59;60.43;99820.50;4439335;32;20111;-81
2022/08/04 00:33:17;;;;;;;;;;;;;;;22.49;60.43;99825.69;4453211;32;31265;-80
2022/08/04 00:35:42;;;;;;;;;;;;;;;22.61;60.43;99816.75;4426301;32;20239;-80
2022/08/04 00:38:08;;;;;;;;;;;;;;;22.40;60.43;99826.41;4439476;32;20021;-81
2022/08/04 00:40:46;;;;;;;;;;;;;;;22.43;60.42;99825.31;4439712;32;19999;-81
2022/08/04 00:43:14;;;;;;;;;;;;;;;22.39;60.41;99824.72;4439220;32;19993;-81
2022/08/04 00:45:54;;;;;;;;;;;;;;;22.22;60.41;99827.88;4439266;32;20003;-81
2022/08/04 00:48:52;;;;;;;;;;;;;;;22.14;60.40;99832.94;4439245;32;20500;-81
2022/08/04 00:51:24;;;;;;;;;;;;;;;21.97;60.39;99842.16;4418579;32;19985;-81
2022/08/04 00:53:54;;;;;;;;;;;;;;;21.94;60.40;99839.75;4439399;32;19993;-82
2022/08/04 00:56:22;;;;;;;;;;;;;;;21.91;60.39;99840.00;4439203;32;20015;-81
2022/08/04 00:58:54;;;;;;;;;;;;;;;21.92;60.39;99837.22;4453630;32;19978;-81
2022/08/04 01:01:43;;;;;;;;;;;;;;;22.04;60.41;99840.78;4439310;32;20016;-80
2022/08/04 01:04:28;;;;;;;;;;;;;;;22.11;60.40;99833.19;4453278;32;20048;-81
2022/08/04 01:07:11;;;;;;;;;;;;;;;22.07;60.40;99834.41;4425914;32;20346;-79
2022/08/04 01:09:40;;;;;;;;;;;;;;;22.03;60.41;99836.41;4438843;32;20261;-82
2022/08/04 01:12:14;;;;;;;;;;;;;;;22.01;60.40;99835.69;4438920;32;20384;-81
2022/08/04 01:14:48;;;;;;;;;;;;;;;21.96;60.40;99837.84;4438780;32;20001;-80
2022/08/04 01:17:14;;;;;;;;;;;;;;;21.98;60.39;99838.56;4453050;32;20003;-82
2022/08/04 01:20:00;;;;;;;;;;;;;;;22.05;60.39;99834.53;4453034;32;19981;-81
2022/08/04 01:22:35;;;;;;;;;;;;;;;21.90;60.39;99838.31;4452883;32;20285;-82
2022/08/04 01:25:19;;;;;;;;;;;;;;;21.88;60.39;99835.78;4438884;32;20387;-82
2022/08/04 01:27:57;;;;;;;;;;;;;;;21.96;60.39;99841.31;4438873;32;20364;-81
2022/08/04 01:30:23;;;;;;;;;;;;;;;22.07;60.40;99837.88;4440405;32;19984;-82
2022/08/04 01:32:52;;;;;;;;;;;;;;;22.11;60.40;99831.38;4440698;32;20326;-82
2022/08/04 01:35:18;;;;;;;;;;;;;;;21.90;60.39;99840.97;4440957;32;20001;-81
2022/08/04 01:37:52;;;;;;;;;;;;;;;21.93;60.39;99846.03;4454932;32;19969;-82
2022/08/04 01:40:17;;;;;;;;;;;;;;;21.81;60.39;99842.53;4455072;32;19984;-82
2022/08/04 01:42:44;;;;;;;;;;;;;;;21.89;60.40;99840.13;4440694;32;20032;-82
2022/08/04 01:45:09;;;;;;;;;;;;;;;21.82;60.39;99838.91;4428120;32;20019;-82
2022/08/04 01:47:35;;;;;;;;;;;;;;;21.76;60.38;99845.50;4440739;32;20383;-85
2022/08/04 01:50:03;;;;;;;;;;;;;;;21.66;60.38;99844.53;4440688;32;19988;-86
2022/08/04 01:52:28;;;;;;;;;;;;;;;21.56;60.37;99842.72;4427729;32;19981;-86
2022/08/04 01:54:53;;;;;;;;;;;;;;;21.57;60.38;99845.25;4440488;32;20003;-86
2022/08/04 01:57:18;;;;;;;;;;;;;;;21.65;60.38;99839.38;4437179;32;37342;-86
2022/08/04 01:59:44;;;;;;;;;;;;;;;21.64;60.38;99848.28;4424545;32;28594;-86
2022/08/04 02:02:09;;;;;;;;;;;;;;;21.65;60.38;99836.72;4438135;32;19993;-85
2022/08/04 02:04:35;;;;;;;;;;;;;;;21.78;60.38;99833.97;4438031;32;20009;-85
2022/08/04 02:07:16;;;;;;;;;;;;;;;21.69;60.37;99833.72;4438035;32;19965;-85
2022/08/04 02:10:01;;;;;;;;;;;;;;;21.84;60.39;99833.50;4439372;32;19981;-86
2022/08/04 02:12:30;;;;;;;;;;;;;;;21.78;60.39;99834.81;4439207;32;20032;-86
2022/08/04 02:14:56;;;;;;;;;;;;;;;21.76;60.38;99837.56;4437997;32;19985;-86
2022/08/04 02:17:22;;;;;;;;;;;;;;;21.76;60.38;99831.41;4437917;32;19989;-86
2022/08/04 02:19:52;;;;;;;;;;;;;;;21.75;60.38;99822.62;4438079;32;20051;-86
2022/08/04 02:22:17;;;;;;;;;;;;;;;21.83;60.39;99824.72;4437952;32;20329;-87
2022/08/04 02:24:47;;;;;;;;;;;;;;;21.80;60.39;99829.41;4425216;32;20026;-86
2022/08/04 02:27:12;;;;;;;;;;;;;;;21.76;60.38;99826.97;4437999;32;19997;-86
2022/08/04 02:29:46;;;;;;;;;;;;;;;21.74;60.38;99830.69;4425202;32;19973;-86
2022/08/04 02:32:18;;;;;;;;;;;;;;;21.84;60.38;99828.19;4425083;32;20053;-87
2022/08/04 02:34:47;;;;;;;;;;;;;;;21.75;60.38;99833.22;4438017;32;19977;-87
2022/08/04 02:37:13;;;;;;;;;;;;;;;21.71;60.39;99818.53;4437843;32;19974;-87
2022/08/04 02:39:39;;;;;;;;;;;;;;;21.76;60.38;99818.16;4438014;32;19996;-87
2022/08/04 02:42:04;;;;;;;;;;;;;;;21.75;60.38;99816.47;4414439;32;27942;-87
2022/08/04 02:44:29;;;;;;;;;;;;;;;21.88;60.39;99819.03;4436934;32;20266;-86
2022/08/04 02:46:55;;;;;;;;;;;;;;;21.87;60.39;99822.66;4437857;32;20017;-87
2022/08/04 02:49:20;;;;;;;;;;;;;;;21.89;60.39;99823.38;4437718;32;20017;-86
2022/08/04 02:51:46;;;;;;;;;;;;;;;21.91;60.39;99821.44;4424988;32;20017;-87
2022/08/04 02:54:12;;;;;;;;;;;;;;;21.86;60.39;99827.13;4429473;32;20009;-86
2022/08/04 02:56:38;;;;;;;;;;;;;;;21.87;60.39;99825.31;4410537;32;22080;-87
2022/08/04 02:59:06;;;;;;;;;;;;;;;22.02;60.40;99821.47;4419751;32;20036;-87
2022/08/04 03:01:31;;;;;;;;;;;;;;;21.79;60.39;99819.78;4432807;32;20045;-86
2022/08/04 03:04:16;;;;;;;;;;;;;;;21.93;60.38;99817.72;4420306;32;19994;-86
2022/08/04 03:06:57;;;;;;;;;;;;;;;21.85;60.38;99819.28;4432202;32;20069;-88
2022/08/04 03:09:41;;;;;;;;;;;;;;;21.93;60.39;99817.72;4432693;32;19974;-87
2022/08/04 03:12:30;;;;;;;;;;;;;;;21.93;60.38;99820.38;4432469;32;20004;-88
2022/08/04 03:15:07;;;;;;;;;;;;;;;21.90;60.39;99822.41;4432587;32;20002;-86
2022/08/04 03:17:42;;;;;;;;;;;;;;;21.96;60.40;99822.78;4432489;32;20000;-86
2022/08/04 03:20:16;;;;;;;;;;;;;;;21.95;60.40;99826.37;4432977;32;20040;-86
2022/08/04 03:23:00;;;;;;;;;;;;;;;21.92;60.38;99825.78;4408317;32;20006;-86
2022/08/04 03:25:34;;;;;;;;;;;;;;;22.04;60.40;99819.56;4408704;32;20396;-86
2022/08/04 03:28:17;;;;;;;;;;;;;;;22.06;60.39;99820.31;4408568;32;20009;-86
2022/08/04 03:30:59;;;;;;;;;;;;;;;22.00;60.39;99818.94;4419835;32;19992;-87
2022/08/04 03:33:27;;;;;;;;;;;;;;;22.09;60.41;99822.69;4432785;32;20005;-86
2022/08/04 03:35:58;;;;;;;;;;;;;;;22.05;60.39;99824.75;4433022;32;19990;-86
2022/08/04 03:38:29;;;;;;;;;;;;;;;22.18;60.40;99826.44;4409198;32;20341;-86
2022/08/04 03:40:54;;;;;;;;;;;;;;;22.18;60.40;99829.94;4446232;32;19986;-87
2022/08/04 03:43:26;;;;;;;;;;;;;;;22.26;60.41;99824.88;4448042;32;19984;-87
2022/08/04 03:45:54;;;;;;;;;;;;;;;22.25;60.41;99836.44;4448304;32;19962;-86
2022/08/04 03:48:29;;;;;;;;;;;;;;;22.35;60.41;99833.91;4442423;32;20411;-86
2022/08/04 03:54:09;;;;;;;;;;;;;;;22.34;60.41;99826.91;4415105;32;20004;-86
2022/08/04 03:56:49;;;;;;;;;;;;;;;22.30;60.40;99822.81;4425531;32;19997;-86
2022/08/04 03:59:26;;;;;;;;;;;;;;;22.49;60.42;99832.81;4437690;32;20405;-86
2022/08/04 04:02:09;;;;;;;;;;;;;;;22.53;60.41;99837.75;4437392;32;19970;-85
2022/08/04 04:05:10;;;;;;;;;;;;;;;22.62;60.42;99833.50;4437723;32;20011;-85
2022/08/04 04:07:56;;;;;;;;;;;;;;;22.79;60.44;99838.28;4383891;32;19991;-86
2022/08/04 04:10:21;;;;;;;;;;;;;;;22.73;60.44;99838.81;4431148;32;20026;-88
2022/08/04 04:13:01;;;;;;;;;;;;;;;22.81;60.44;99835.50;4437167;32;19990;-87
2022/08/04 04:15:33;;;;;;;;;;;;;;;22.93;60.44;99838.03;4424168;32;20364;-87
2022/08/04 04:18:08;;;;;;;;;;;;;;;23.08;60.45;99835.09;4437471;32;19990;-86
2022/08/04 04:20:36;;;;;;;;;;;;;;;23.21;60.45;99833.13;4437195;32;19989;-88
2022/08/04 04:23:21;;;;;;;;;;;;;;;23.26;60.46;99831.75;4438362;32;20326;-87
2022/08/04 04:26:05;;;;;;;;;;;;;;;23.38;60.46;99832.53;4436768;32;20040;-88
2022/08/04 04:28:49;;;;;;;;;;;;;;;23.46;60.47;99835.41;4438619;32;20277;-87
2022/08/04 04:31:26;;;;;;;;;;;;;;;23.58;60.47;99833.56;4428990;32;19988;-85
2022/08/04 04:34:01;;;;;;;;;;;;;;;23.67;60.48;99831.94;4438193;32;20025;-86
2022/08/04 04:36:34;;;;;;;;;;;;;;;23.74;60.48;99830.44;4437226;32;19989;-87
2022/08/04 04:39:18;;;;;;;;;;;;;;;23.86;60.49;99837.34;4424065;32;20284;-86
2022/08/04 04:41:55;;;;;;;;;;;;;;;23.94;60.49;99836.72;4438308;32;20005;-81
2022/08/04 04:44:31;;;;;;;;;;;;;;;24.07;60.51;99837.31;4436606;32;19974;-81
2022/08/04 04:47:03;;;;;;;;;;;;;;;24.10;60.50;99837.06;4436543;32;20008;-81
2022/08/04 04:49:33;;;;;;;;;;;;;;;24.15;60.50;99837.53;4437977;32;19985;-82
2022/08/04 04:51:58;;;;;;;;;;;;;;;24.25;60.51;99842.88;4423535;32;20260;-81
2022/08/04 04:54:24;;;;;;;;;;;;;;;24.27;60.50;99838.25;4437541;32;19976;-81
2022/08/04 04:56:59;;;;;;;;;;;;;;;24.32;60.51;99847.53;4442612;32;20257;-82
2022/08/04 04:59:26;;;;;;;;;;;;;;;24.42;60.51;99847.59;4426236;32;20004;-81
2022/08/04 05:02:10;;;;;;;;;;;;;;;24.58;60.51;99845.25;4438713;32;19996;-81
2022/08/04 05:04:41;;;;;;;;;;;;;;;24.70;60.53;99846.00;4454337;32;19996;-82
2022/08/04 05:07:15;;;;;;;;;;;;;;;24.76;60.54;99846.28;4440889;32;19989;-81
2022/08/04 05:09:44;;;;;;;;;;;;;;;24.80;60.53;99847.69;4455058;32;20003;-81
2022/08/04 05:12:25;;;;;;;;;;;;;;;24.93;60.54;99851.91;4454896;32;20022;-82
2022/08/04 05:14:51;;;;;;;;;;;;;;;25.09;60.55;99847.78;4454979;32;20383;-81
2022/08/04 05:17:26;;;;;;;;;;;;;;;25.20;60.55;99852.09;4440610;32;19985;-81
2022/08/04 05:19:51;;;;;;;;;;;;;;;25.34;60.56;99851.69;4435598;32;19994;-79
2022/08/04 05:22:21;;;;;;;;;;;;;;;25.55;60.58;99843.56;4441037;32;19992;-81
2022/08/04 05:24:46;;;;;;;;;;;;;;;25.76;60.58;99850.53;4436447;32;20034;-81
2022/08/04 05:27:33;;;;;;;;;;;;;;;25.71;60.58;99853.63;4440361;32;20029;-81
2022/08/04 05:29:59;;;;;;;;;;;;;;;25.91;60.59;99851.78;4440820;32;19996;-82
2022/08/04 05:32:28;;;;;;;;;;;;;;;26.01;60.60;99857.91;4427832;32;20364;-82
2022/08/04 05:35:01;;;;;;;;;;;;;;;26.11;60.60;99861.41;4454514;32;19991;-81
2022/08/04 05:37:27;;;;;;;;;;;;;;;26.33;60.62;99846.84;4440539;32;20307;-81
2022/08/04 05:39:53;;;;;;;;;;;;;;;26.52;60.62;99849.47;4440610;32;19989;-81
2022/08/04 05:42:18;;;;;;;;;;;;;;;26.60;60.63;99854.91;4440544;32;19961;-82
2022/08/04 05:44:43;;;;;;;;;;;;;;;26.69;60.63;99849.63;4426673;32;35012;-81
2022/08/04 05:47:10;;;;;;;;;;;;;;;26.78;60.63;99849.59;4454024;32;29206;-83
2022/08/04 05:49:35;;;;;;;;;;;;;;;26.83;60.64;99854.47;4440582;32;19989;-83
2022/08/04 05:52:01;;;;;;;;;;;;;;;26.96;60.65;99857.59;4426990;32;25844;-83
2022/08/04 05:54:26;;;;;;;;;;;;;;;27.05;60.65;99862.09;4427300;32;20338;-83
2022/08/04 05:56:52;;;;;;;;;;;;;;;27.04;60.65;99864.91;4427373;32;20023;-83
2022/08/04 05:59:17;;;;;;;;;;;;;;;27.10;60.65;99858.97;4441500;32;20007;-83
2022/08/04 06:01:42;;;;;;;;;;;;;;;27.16;60.66;99869.03;4441511;32;20274;-83
2022/08/04 06:04:07;;;;;;;;;;;;;;;27.37;60.66;99864.22;4440691;32;34560;-83
2022/08/04 06:06:33;;;;;;;;;;;;;;;27.38;60.66;99862.38;4440923;32;35945;-83
2022/08/04 06:08:58;;;;;;;;;;;;;;;27.56;60.68;99859.69;4428209;32;34271;-83
2022/08/04 06:11:24;;;;;;;;;;;;;;;27.60;60.68;99863.75;4455548;32;23025;-83
2022/08/04 06:13:53;;;;;;;;;;;;;;;27.63;60.68;99858.94;4441963;32;19988;-82
2022/08/04 06:16:21;;;;;;;;;;;;;;;27.81;60.70;99858.91;4428700;32;20070;-82
2022/08/04 06:18:46;;;;;;;;;;;;;;;28.02;60.70;99859.38;4455656;32;20052;-83
2022/08/04 06:21:11;;;;;;;;;;;;;;;27.92;60.70;99865.81;4440878;32;35792;-82
2022/08/04 06:23:36;;;;;;;;;;;;;;;28.10;60.71;99863.94;4428769;32;19985;-83
2022/08/04 06:26:02;;;;;;;;;;;;;;;28.06;60.71;99858.06;4441718;32;20325;-83
2022/08/04 06:28:27;;;;;;;;;;;;;;;28.15;60.71;99858.94;4441810;32;19996;-83
2022/08/04 06:30:53;;;;;;;;;;;;;;;28.23;60.71;99858.16;4440777;32;36253;-84
2022/08/04 06:33:35;;;;;;;;;;;;;;;28.25;60.71;99859.72;4441930;32;20309;-83
2022/08/04 06:36:01;;;;;;;;;;;;;;;28.25;60.72;99861.56;4443519;32;20314;-83
2022/08/04 06:38:27;;;;;;;;;;;;;;;28.41;60.72;99861.63;4441803;32;20027;-83
2022/08/04 06:40:52;;;;;;;;;;;;;;;28.47;60.73;99861.00;4441689;32;19973;-83
2022/08/04 06:43:17;;;;;;;;;;;;;;;28.63;60.73;99861.06;4441604;32;19970;-83
2022/08/04 06:45:42;;;;;;;;;;;;;;;28.79;60.74;99859.41;4440708;32;35841;-83
2022/08/04 06:48:09;;;;;;;;;;;;;;;28.71;60.74;99863.75;4441738;32;19993;-83
2022/08/04 06:50:34;;;;;;;;;;;;;;;28.78;60.74;99853.22;4441560;32;19973;-83
2022/08/04 06:52:59;;;;;;;;;;;;;;;29.02;60.75;99857.81;4441664;32;20008;-83
2022/08/04 06:55:25;;;;;;;;;;;;;;;29.08;60.75;99851.78;4428174;32;19993;-83
2022/08/04 06:57:50;;;;;;;;;;;;;;;29.18;60.76;99859.69;4440765;32;32211;-83
2022/08/04 07:00:15;;;;;;;;;;;;;;;29.34;60.77;99854.38;4440950;32;25487;-83
2022/08/04 07:02:44;;;;;;;;;;;;;;;29.41;60.78;99858.03;4441096;32;19985;-83
2022/08/04 07:05:09;;;;;;;;;;;;;;;29.49;60.78;99859.91;4441535;32;20004;-83
2022/08/04 07:07:35;;;;;;;;;;;;;;;29.49;60.78;99858.06;4441558;32;19993;-83
2022/08/04 07:10:00;;;;;;;;;;;;;;;29.53;60.78;99854.03;4428664;32;19969;-83
2022/08/04 07:12:25;;;;;;;;;;;;;;;29.62;60.78;99860.25;4428729;32;19974;-83
2022/08/04 07:14:51;;;;;;;;;;;;;;;29.72;60.79;99857.38;4440613;32;32894;-82
2022/08/04 07:17:16;;;;;;;;;;;;;;;29.87;60.80;99859.22;4442473;32;20023;-82
2022/08/04 07:19:43;;;;;;;;;;;;;;;29.94;60.79;99854.00;4444348;32;19987;-82
2022/08/04 07:22:08;;;;;;;;;;;;;;;30.07;60.80;99856.19;4444215;32;19985;-83
2022/08/04 07:24:34;;;;;;;;;;;;;;;29.99;60.80;99857.00;4429837;32;19993;-83
2022/08/04 07:26:59;;;;;;;;;;;;;;;30.12;60.81;99853.81;4440524;32;20004;-83
2022/08/04 07:29:24;;;;;;;;;;;;;;;30.25;60.81;99854.09;4441385;32;19988;-83
2022/08/04 07:31:50;;;;;;;;;;;;;;;30.18;60.81;99851.28;4428511;32;19985;-83
2022/08/04 07:34:15;;;;;;;;;;;;;;;30.28;60.82;99855.59;4441248;32;20257;-83
2022/08/04 07:36:40;;;;;;;;;;;;;;;30.32;60.82;99849.72;4440598;32;33809;-83
2022/08/04 07:39:05;;;;;;;;;;;;;;;30.39;60.83;99855.22;4427502;32;36289;-83
2022/08/04 07:41:30;;;;;;;;;;;;;;;30.48;60.83;99846.13;4440420;32;35594;-83
2022/08/04 07:43:56;;;;;;;;;;;;;;;30.59;60.83;99847.59;4454452;32;32077;-83
2022/08/04 07:46:21;;;;;;;;;;;;;;;30.65;60.83;99842.38;4455086;32;19992;-83
2022/08/04 07:48:46;;;;;;;;;;;;;;;30.51;60.84;99843.06;4428314;32;20036;-83
2022/08/04 07:51:11;;;;;;;;;;;;;;;30.75;60.83;99836.78;4441129;32;19988;-83
2022/08/04 07:53:36;;;;;;;;;;;;;;;30.79;60.84;99836.25;4441020;32;20270;-83
2022/08/04 07:56:02;;;;;;;;;;;;;;;30.83;60.85;99832.22;4440139;32;35639;-82
2022/08/04 07:58:27;;;;;;;;;;;;;;;30.99;60.86;99835.78;4428076;32;20018;-83
2022/08/04 08:00:53;;;;;;;;;;;;;;;30.89;60.85;99832.50;4455289;32;19988;-83
2022/08/04 08:03:19;;;;;;;;;;;;;;;30.93;60.86;99831.97;4441201;32;19981;-83
2022/08/04 08:05:44;;;;;;;;;;;;;;;31.00;60.86;99829.41;4440930;32;20000;-83
2022/08/04 08:08:10;;;;;;;;;;;;;;;31.17;60.86;99822.91;4441093;32;20023;-83
2022/08/04 08:10:35;;;;;;;;;;;;;;;31.30;60.86;99827.72;4441253;32;20003;-83
2022/08/04 08:13:01;;;;;;;;;;;;;;;31.30;60.88;99828.53;4440994;32;20353;-83
2022/08/04 08:15:26;;;;;;;;;;;;;;;31.40;60.88;99834.50;4440077;32;35083;-83
2022/08/04 08:17:51;;;;;;;;;;;;;;;31.62;60.89;99830.09;4440897;32;20306;-83
2022/08/04 08:20:16;;;;;;;;;;;;;;;31.73;60.89;99832.38;4440890;32;19981;-83
2022/08/04 08:22:41;;;;;;;;;;;;;;;31.88;60.90;99828.84;4427163;32;36778;-83
2022/08/04 08:25:07;;;;;;;;;;;;;;;31.81;60.90;99828.78;4427112;32;37411;-83
2022/08/04 08:27:32;;;;;;;;;;;;;;;31.82;60.90;99824.22;4440971;32;19993;-83
2022/08/04 08:29:58;;;;;;;;;;;;;;;32.08;60.91;99816.53;4441036;32;20310;-83
2022/08/04 08:32:23;;;;;;;;;;;;;;;32.19;60.92;99821.47;4439835;32;31800;-82
2022/08/04 08:34:48;;;;;;;;;;;;;;;32.31;60.92;99832.59;4427645;32;20346;-82
2022/08/04 08:37:22;;;;;;;;;;;;;;;32.34;60.91;99819.59;4454884;32;20234;-83
2022/08/04 08:39:51;;;;;;;;;;;;;;;32.45;60.92;99826.37;4440621;32;20046;-83
2022/08/04 08:42:22;;;;;;;;;;;;;;;32.65;60.94;99821.19;4454751;32;19981;-83
2022/08/04 08:44:53;;;;;;;;;;;;;;;32.36;60.93;99830.19;4454797;32;20000;-84
2022/08/04 08:47:18;;;;;;;;;;;;;;;32.32;60.92;99834.28;4440668;32;19969;-83
2022/08/04 08:50:05;;;;;;;;;;;;;;;32.51;60.94;99825.63;4454773;32;19977;-83
2022/08/04 08:52:34;;;;;;;;;;;;;;;32.73;60.94;99826.50;4427843;32;19990;-84
2022/08/04 08:55:18;;;;;;;;;;;;;;;33.08;60.96;99835.59;4454621;32;20342;-84
2022/08/04 08:57:56;;;;;;;;;;;;;;;33.44;60.98;99823.94;4440298;32;19992;-84
2022/08/04 09:00:27;;;;;;;;;;;;;;;33.62;60.99;99827.00;4454880;32;20034;-84
2022/08/04 09:03:11;;;;;;;;;;;;;;;33.70;60.98;99817.91;4440250;32;20049;-84
2022/08/04 09:05:45;;;;;;;;;;;;;;;33.46;60.97;99819.19;4454431;32;20388;-84
2022/08/04 09:08:31;;;;;;;;;;;;;;;33.34;60.97;99821.56;4454441;32;19977;-84
2022/08/04 09:11:05;;;;;;;;;;;;;;;33.47;60.98;99818.97;4454094;32;20028;-84
2022/08/04 09:13:56;;;;;;;;;;;;;;;33.66;60.99;99825.56;4440438;32;19982;-84
2022/08/04 09:16:35;;;;;;;;;;;;;;;33.97;61.00;99822.47;4451126;32;20042;-84
2022/08/04 09:19:06;;;;;;;;;;;;;;;34.28;61.02;99819.31;4454301;32;20572;-84
2022/08/04 09:21:47;;;;;;;;;;;;;;;34.52;61.03;99815.28;4454285;32;19991;-83
2022/08/04 09:24:17;;;;;;;;;;;;;;;34.74;61.04;99813.25;4440028;32;20023;-84
2022/08/04 09:26:42;;;;;;;;;;;;;;;34.97;61.05;99815.63;4427193;32;20023;-84
2022/08/04 09:29:21;;;;;;;;;;;;;;;35.08;61.05;99810.47;4454087;32;20021;-84
2022/08/04 09:31:53;;;;;;;;;;;;;;;35.03;61.05;99810.25;4440181;32;19981;-84
2022/08/04 09:34:26;;;;;;;;;;;;;;;35.26;61.07;99809.87;4454028;32;19977;-84
2022/08/04 09:37:04;;;;;;;;;;;;;;;35.55;61.07;99805.94;4427099;32;20004;-84
2022/08/04 09:39:32;;;;;;;;;;;;;;;35.69;61.08;99807.56;4439737;32;20383;-84
2022/08/04 09:42:17;;;;;;;;;;;;;;;35.74;61.09;99803.41;4427025;32;19981;-84
2022/08/04 09:44:47;;;;;;;;;;;;;;;36.00;61.10;99805.25;4439740;32;19981;-84
2022/08/04 09:47:32;;;;;;;;;;;;;;;36.06;61.10;99802.53;4439732;32;20007;-84
2022/08/04 09:50:02;;;;;;;;;;;;;;;36.01;61.10;99796.09;4453673;32;19974;-84
2022/08/04 09:52:42;;;;;;;;;;;;;;;36.13;61.10;99795.19;4456251;32;20023;-84
2022/08/04 09:55:10;;;;;;;;;;;;;;;36.10;61.11;99790.22;4442018;32;19981;-84
2022/08/04 09:57:35;;;;;;;;;;;;;;;36.22;61.10;99779.53;4441799;32;20011;-84
2022/08/04 10:00:02;;;;;;;;;;;;;;;36.36;61.11;99780.34;4441898;32;20024;-84
2022/08/04 10:02:30;;;;;;;;;;;;;;;36.37;61.13;99780.13;4441911;32;19981;-84
2022/08/04 10:04:55;;;;;;;;;;;;;;;36.17;61.11;99780.16;4441830;32;20008;-84
2022/08/04 10:07:28;;;;;;;;;;;;;;;36.26;61.11;99776.19;4455096;32;35256;-84
2022/08/04 10:10:02;;;;;;;;;;;;;;;36.50;61.13;99777.34;4442050;32;20351;-84
2022/08/04 10:12:35;;;;;;;;;;;;;;;36.64;61.13;99772.66;4441833;32;20253;-84
2022/08/04 10:15:16;;;;;;;;;;;;;;;36.75;61.14;99777.41;4428955;32;19977;-84
2022/08/04 10:17:44;;;;;;;;;;;;;;;37.01;61.15;99776.44;4441820;32;19994;-84
2022/08/04 10:20:09;;;;;;;;;;;;;;;37.06;61.15;99776.59;4441863;32;20352;-84
2022/08/04 10:22:42;;;;;;;;;;;;;;;37.19;61.16;99781.94;4455896;32;19997;-84
2022/08/04 10:25:07;;;;;;;;;;;;;;;37.16;61.15;99763.38;4441725;32;20050;-84
2022/08/04 10:27:33;;;;;;;;;;;;;;;37.17;61.15;99762.31;4455933;32;20001;-84
2022/08/04 10:30:02;;;;;;;;;;;;;;;37.31;61.16;99764.94;4441863;32;20340;-84
2022/08/04 10:32:35;;;;;;;;;;;;;;;37.41;61.16;99752.53;4441866;32;20369;-84
2022/08/04 10:35:01;;;;;;;;;;;;;;;37.57;61.17;99758.44;4441731;32;19982;-84
2022/08/04 10:37:26;;;;;;;;;;;;;;;37.83;61.18;99760.06;4428990;32;20056;-84
2022/08/04 10:42:49;;;;;;;;;;;;;;;38.06;61.20;99754.78;4455791;32;20000;-84
2022/08/04 10:45:18;;;;;;;;;;;;;;;37.82;61.18;99751.06;4428829;32;19997;-84
2022/08/04 10:47:51;;;;;;;;;;;;;;;38.00;61.19;99742.09;4441737;32;20422;-84
2022/08/04 10:50:16;;;;;;;;;;;;;;;38.12;61.20;99739.47;4441648;32;19974;-84
2022/08/04 10:52:43;;;;;;;;;;;;;;;37.96;61.20;99741.72;4441637;32;20230;-84
2022/08/04 10:55:08;;;;;;;;;;;;;;;38.06;61.20;99735.75;4441332;32;19981;-84
2022/08/04 10:57:42;;;;;;;;;;;;;;;37.94;61.19;99735.69;4455674;32;19987;-84
2022/08/04 11:00:15;;;;;;;;;;;;;;;37.88;61.19;99733.06;4455725;32;20008;-84
2022/08/04 11:02:54;;;;;;;;;;;;;;;37.90;61.19;99733.66;4454528;32;20390;-84
2022/08/04 11:05:22;;;;;;;;;;;;;;;37.64;61.18;99732.03;4455592;32;19996;-83
2022/08/04 11:07:49;;;;;;;;;;;;;;;37.25;61.16;99734.09;4441527;32;20005;-84
2022/08/04 11:10:14;;;;;;;;;;;;;;;37.12;61.16;99732.28;4446127;32;20033;-84
2022/08/04 11:12:39;;;;;;;;;;;;;;;36.97;61.15;99733.69;4446270;32;29967;-83
2022/08/04 11:15:12;;;;;;;;;;;;;;;37.01;61.15;99733.00;4433524;32;19989;-84
2022/08/04 11:17:39;;;;;;;;;;;;;;;37.13;61.16;99731.22;4441743;32;20001;-84
2022/08/04 11:20:10;;;;;;;;;;;;;;;37.22;61.16;99731.78;4441483;32;19969;-84
2022/08/04 11:22:36;;;;;;;;;;;;;;;37.26;61.17;99719.47;4455544;32;19992;-84
2022/08/04 11:25:21;;;;;;;;;;;;;;;37.59;61.18;99721.00;4441222;32;19985;-84
2022/08/04 11:27:46;;;;;;;;;;;;;;;37.83;61.20;99722.84;4441367;32;20007;-85
2022/08/04 11:30:12;;;;;;;;;;;;;;;38.11;61.20;99718.78;4455506;32;19969;-84
2022/08/04 11:32:40;;;;;;;;;;;;;;;38.31;61.21;99712.00;4455633;32;20316;-84
2022/08/04 11:35:06;;;;;;;;;;;;;;;38.52;61.22;99707.94;4455614;32;19973;-84
2022/08/04 11:37:36;;;;;;;;;;;;;;;38.37;61.21;99713.00;4441479;32;20033;-84
2022/08/04 11:40:05;;;;;;;;;;;;;;;38.37;61.21;99707.56;4429062;32;20377;-84
2022/08/04 11:42:35;;;;;;;;;;;;;;;38.51;61.22;99702.75;4455465;32;20017;-84
2022/08/04 11:45:07;;;;;;;;;;;;;;;38.30;61.21;99706.81;4441747;32;19985;-84
2022/08/04 11:47:32;;;;;;;;;;;;;;;38.42;61.22;99699.53;4441425;32;20345;-84
2022/08/04 11:49:59;;;;;;;;;;;;;;;38.46;61.22;99697.19;4455389;32;19988;-84
2022/08/04 11:52:25;;;;;;;;;;;;;;;38.70;61.23;99698.94;4428373;32;20369;-84
2022/08/04 11:54:50;;;;;;;;;;;;;;;38.67;61.23;99692.06;4441089;32;20112;-84
2022/08/04 11:57:15;;;;;;;;;;;;;;;38.80;61.25;99680.13;4441156;32;19977;-85
2022/08/04 11:59:41;;;;;;;;;;;;;;;39.10;61.25;99687.41;4440278;32;34684;-85
2022/08/04 12:02:14;;;;;;;;;;;;;;;39.10;61.25;99674.63;4441199;32;19985;-84
2022/08/04 12:04:49;;;;;;;;;;;;;;;39.14;61.24;99677.72;4441179;32;20013;-84
2022/08/04 12:07:22;;;;;;;;;;;;;;;39.22;61.25;99674.63;4428216;32;20053;-84
2022/08/04 12:09:51;;;;;;;;;;;;;;;39.37;61.26;99672.25;4428597;32;20025;-84
2022/08/04 12:12:26;;;;;;;;;;;;;;;39.25;61.26;99661.34;4440806;32;20001;-84
2022/08/04 12:15:12;;;;;;;;;;;;;;;39.43;61.26;99663.13;4428284;32;19994;-84
2022/08/04 12:17:41;;;;;;;;;;;;;;;39.53;61.26;99665.28;4455367;32;19989;-84
2022/08/04 12:20:08;;;;;;;;;;;;;;;39.58;61.27;99666.22;4428122;32;19981;-84
2022/08/04 12:22:46;;;;;;;;;;;;;;;39.61;61.27;99659.44;4441142;32;20321;-84
2022/08/04 12:25:13;;;;;;;;;;;;;;;39.66;61.28;99659.53;4440735;32;19981;-84
2022/08/04 12:27:44;;;;;;;;;;;;;;;39.67;61.28;99654.91;4455457;32;20341;-84
2022/08/04 12:30:09;;;;;;;;;;;;;;;39.68;61.28;99667.47;4455257;32;19988;-84
2022/08/04 12:32:40;;;;;;;;;;;;;;;39.73;61.28;99654.78;4427996;32;20289;-84
2022/08/04 12:35:08;;;;;;;;;;;;;;;39.63;61.28;99659.19;4440730;32;20047;-84
2022/08/04 12:37:52;;;;;;;;;;;;;;;39.33;61.26;99662.06;4454967;32;20043;-84
2022/08/04 12:40:19;;;;;;;;;;;;;;;38.90;61.25;99655.91;4454915;32;19973;-84
2022/08/04 12:42:46;;;;;;;;;;;;;;;38.69;61.23;99659.19;4454683;32;19965;-84
2022/08/04 12:45:12;;;;;;;;;;;;;;;38.33;61.22;99650.09;4440581;32;19969;-84
2022/08/04 12:47:37;;;;;;;;;;;;;;;37.90;61.20;99652.13;4439751;32;35298;-84
2022/08/04 12:50:03;;;;;;;;;;;;;;;37.73;61.18;99649.22;4426949;32;36604;-84
2022/08/04 12:52:48;;;;;;;;;;;;;;;37.63;61.18;99646.19;4440574;32;19992;-84
2022/08/04 12:55:14;;;;;;;;;;;;;;;37.80;61.19;99649.94;4454184;32;19995;-84
2022/08/04 12:57:39;;;;;;;;;;;;;;;38.03;61.20;99647.34;4427853;32;19993;-84
2022/08/04 13:00:06;;;;;;;;;;;;;;;38.29;61.22;99642.63;4440787;32;20318;-84
2022/08/04 13:02:33;;;;;;;;;;;;;;;38.60;61.23;99636.09;4440756;32;20408;-85
2022/08/04 13:04:59;;;;;;;;;;;;;;;38.85;61.24;99639.44;4440651;32;19973;-84
2022/08/04 13:07:24;;;;;;;;;;;;;;;38.93;61.24;99639.09;4440457;32;20340;-84
2022/08/04 13:09:50;;;;;;;;;;;;;;;39.15;61.25;99633.91;4440183;32;19988;-84